Time;durP1;ratioP1;P1;durP2;ratioP2;P2;SDS_P1;SDS_P2;PMS_P1;PMS_P2;Temp;Humidity;BMP_temperature;BMP_pressure;BME280_temperature;BME280_humidity;BME280_pressure;Samples;Min_cycle;Max_cycle;Signal;HPM_P1;HPM_P2
2021/06/20 00:00:32;;;;;;;124.32;65.80;;;;;12.60;101107.00;;;;5107549;28;20066;-77
2021/06/20 00:02:59;;;;;;;124.65;65.97;;;;;12.60;101108.00;;;;5107303;28;20031;-78
2021/06/20 00:05:31;;;;;;;110.20;65.45;;;;;12.60;101125.00;;;;5107253;28;20110;-77
2021/06/20 00:08:00;;;;;;;118.55;70.05;;;;;12.60;101116.00;;;;5107189;28;20043;-78
2021/06/20 00:10:28;;;;;;;128.40;68.68;;;;;12.70;101116.00;;;;5106676;28;20031;-77
2021/06/20 00:12:56;;;;;;;123.53;65.30;;;;;12.70;101133.00;;;;5107260;28;20023;-79
2021/06/20 00:15:25;;;;;;;131.05;76.20;;;;;12.80;101116.00;;;;5107679;28;20052;-77
2021/06/20 00:17:51;;;;;;;134.70;70.68;;;;;12.80;101115.00;;;;5107366;28;20034;-78
2021/06/20 00:20:21;;;;;;;130.60;73.32;;;;;12.80;101126.00;;;;5107116;28;20023;-78
2021/06/20 00:22:48;;;;;;;130.02;75.13;;;;;12.80;101127.00;;;;5107121;28;20059;-79
2021/06/20 00:25:16;;;;;;;141.55;76.78;;;;;12.80;101130.00;;;;5107384;28;20028;-77
2021/06/20 00:27:43;;;;;;;138.38;74.25;;;;;12.90;101133.00;;;;5107521;28;20031;-77
2021/06/20 00:30:13;;;;;;;138.77;78.32;;;;;12.90;101123.00;;;;5107678;28;20028;-77
2021/06/20 00:32:40;;;;;;;120.13;69.05;;;;;12.90;101124.00;;;;5106919;28;20035;-77
2021/06/20 00:35:07;;;;;;;136.70;75.60;;;;;12.90;101136.00;;;;5107311;28;20549;-77
2021/06/20 00:37:34;;;;;;;141.30;76.63;;;;;12.90;101133.00;;;;5106969;28;20028;-78
2021/06/20 00:40:00;;;;;;;149.63;88.53;;;;;12.90;101116.00;;;;5107356;28;20034;-75
2021/06/20 00:42:27;;;;;;;138.65;79.45;;;;;12.90;101134.00;;;;5106685;28;20038;-77
2021/06/20 00:44:54;;;;;;;134.98;74.00;;;;;12.90;101143.00;;;;5106883;28;20119;-78
2021/06/20 00:47:20;;;;;;;134.95;79.32;;;;;12.90;101123.00;;;;5106894;28;20504;-77
2021/06/20 00:49:47;;;;;;;150.63;85.53;;;;;12.90;101130.00;;;;5106847;28;20031;-76
2021/06/20 00:52:14;;;;;;;169.52;103.45;;;;;12.90;101132.00;;;;5106892;28;20110;-77
2021/06/20 00:54:47;;;;;;;125.00;72.85;;;;;12.90;101144.00;;;;5106744;28;20048;-76
2021/06/20 00:57:20;;;;;;;136.85;74.10;;;;;12.80;101141.00;;;;5106781;28;20065;-77
2021/06/20 00:59:48;;;;;;;140.45;80.50;;;;;12.80;101132.00;;;;5106635;28;20402;-76
2021/06/20 01:02:16;;;;;;;139.23;78.38;;;;;12.80;101128.00;;;;5107411;28;20119;-78
2021/06/20 01:04:46;;;;;;;147.23;85.40;;;;;12.80;101141.00;;;;5108793;28;20046;-76
2021/06/20 01:07:20;;;;;;;137.25;82.05;;;;;12.80;101150.00;;;;5110702;28;20039;-77
2021/06/20 01:09:49;;;;;;;134.85;80.47;;;;;12.80;101158.00;;;;5110625;28;20028;-77
2021/06/20 01:12:16;;;;;;;129.40;76.80;;;;;12.80;101158.00;;;;5110332;28;20031;-78
2021/06/20 01:14:46;;;;;;;141.35;74.70;;;;;12.80;101146.00;;;;5109958;28;20023;-78
2021/06/20 01:17:13;;;;;;;134.70;82.13;;;;;12.80;101163.00;;;;5110203;28;20031;-77
2021/06/20 01:19:41;;;;;;;125.93;82.35;;;;;12.80;101155.00;;;;5110466;28;20417;-77
2021/06/20 01:22:21;;;;;;;133.40;85.32;;;;;12.80;101154.00;;;;5110148;28;20123;-79
2021/06/20 01:24:55;;;;;;;139.18;83.20;;;;;12.80;101151.00;;;;5110701;28;20489;-78
2021/06/20 01:27:34;;;;;;;130.43;77.22;;;;;12.80;101157.00;;;;5110047;28;20142;-78
2021/06/20 01:30:04;;;;;;;121.55;73.68;;;;;12.80;101146.00;;;;5110014;28;20030;-78
2021/06/20 01:32:32;;;;;;;111.50;69.97;;;;;12.80;101139.00;;;;5110110;28;20076;-78
2021/06/20 01:34:59;;;;;;;127.90;68.97;;;;;12.80;101142.00;;;;5110030;28;20031;-77
2021/06/20 01:37:26;;;;;;;113.45;74.53;;;;;12.80;101162.00;;;;5091743;28;20462;-78
2021/06/20 01:39:53;;;;;;;124.88;73.18;;;;;12.80;101158.00;;;;5109356;28;20027;-78
2021/06/20 01:42:20;;;;;;;127.43;73.13;;;;;12.80;101145.00;;;;5109926;28;20023;-78
2021/06/20 01:44:57;;;;;;;118.90;76.35;;;;;12.80;101140.00;;;;5109727;28;20046;-78
2021/06/20 01:47:26;;;;;;;115.97;75.07;;;;;12.80;101159.00;;;;5109862;28;20562;-78
2021/06/20 01:49:54;;;;;;;127.53;74.57;;;;;12.80;101156.00;;;;5110794;28;20075;-77
2021/06/20 01:52:24;;;;;;;127.53;73.72;;;;;12.80;101146.00;;;;5109731;28;20062;-77
2021/06/20 01:54:53;;;;;;;125.18;73.45;;;;;12.80;101139.00;;;;5090941;28;20062;-78
2021/06/20 01:57:29;;;;;;;136.10;77.30;;;;;12.80;101156.00;;;;5109560;28;20593;-78
2021/06/20 01:59:57;;;;;;;132.30;75.72;;;;;12.80;101140.00;;;;5109388;28;20491;-77
2021/06/20 02:02:26;;;;;;;141.75;77.88;;;;;12.80;101154.00;;;;5109249;28;20027;-77
2021/06/20 02:04:55;;;;;;;143.40;80.55;;;;;12.80;101148.00;;;;5109054;28;20032;-79
2021/06/20 02:07:26;;;;;;;131.70;78.00;;;;;12.80;101155.00;;;;5109270;28;20062;-78
2021/06/20 02:09:55;;;;;;;136.90;84.20;;;;;12.80;101153.00;;;;5109519;28;20027;-78
2021/06/20 02:12:24;;;;;;;125.00;75.07;;;;;12.80;101150.00;;;;5109400;28;20491;-77
2021/06/20 02:14:51;;;;;;;129.32;69.35;;;;;12.80;101168.00;;;;5108983;28;20078;-78
2021/06/20 02:17:30;;;;;;;154.23;83.53;;;;;12.80;101160.00;;;;5109012;28;20103;-78
2021/06/20 02:20:03;;;;;;;139.65;76.00;;;;;12.80;101155.00;;;;5109008;28;20109;-78
2021/06/20 02:22:31;;;;;;;142.88;71.57;;;;;12.80;101154.00;;;;5109097;28;20030;-78
2021/06/20 02:24:58;;;;;;;134.95;73.57;;;;;12.80;101141.00;;;;5108588;28;20044;-78
2021/06/20 02:27:25;;;;;;;142.65;76.70;;;;;12.80;101150.00;;;;5109211;28;20474;-78
2021/06/20 02:29:54;;;;;;;159.50;78.90;;;;;12.80;101136.00;;;;5108285;28;20041;-79
2021/06/20 02:32:21;;;;;;;158.68;77.35;;;;;12.80;101156.00;;;;5108140;28;20077;-78
2021/06/20 02:34:48;;;;;;;183.82;80.28;;;;;12.80;101142.00;;;;5109212;28;20027;-79
2021/06/20 02:37:16;;;;;;;143.73;72.20;;;;;12.80;101153.00;;;;5108573;28;21129;-78
2021/06/20 02:39:43;;;;;;;166.82;75.57;;;;;12.80;101132.00;;;;5108147;28;20032;-79
2021/06/20 02:42:10;;;;;;;150.70;70.32;;;;;12.80;101158.00;;;;5109223;28;20036;-79
2021/06/20 02:44:37;;;;;;;148.35;67.97;;;;;12.80;101145.00;;;;5108463;28;20394;-79
2021/06/20 02:47:05;;;;;;;197.45;71.82;;;;;12.80;101156.00;;;;5108377;28;20435;-79
2021/06/20 02:49:33;;;;;;;166.23;69.35;;;;;12.80;101160.00;;;;5108737;28;20068;-79
2021/06/20 02:52:00;;;;;;;181.40;66.25;;;;;12.80;101146.00;;;;5108484;28;20027;-78
2021/06/20 02:54:27;;;;;;;179.65;69.90;;;;;12.80;101135.00;;;;5108915;28;20066;-79
2021/06/20 02:56:54;;;;;;;168.63;71.13;;;;;12.80;101141.00;;;;5108995;28;20062;-78
2021/06/20 02:59:20;;;;;;;166.40;71.53;;;;;12.80;101130.00;;;;5108438;28;20522;-78
2021/06/20 03:01:47;;;;;;;158.02;71.45;;;;;12.80;101138.00;;;;5108635;28;20089;-79
2021/06/20 03:04:13;;;;;;;183.55;70.38;;;;;12.80;101120.00;;;;5107924;28;20023;-77
2021/06/20 03:06:40;;;;;;;182.98;71.15;;;;;12.80;101148.00;;;;5108397;28;20131;-77
2021/06/20 03:09:08;;;;;;;193.98;69.85;;;;;12.80;101126.00;;;;5107663;28;20513;-76
2021/06/20 03:11:41;;;;;;;188.10;69.93;;;;;12.80;101142.00;;;;5108179;28;20070;-77
2021/06/20 03:14:14;;;;;;;215.05;69.00;;;;;12.80;101118.00;;;;5109455;28;20030;-78
2021/06/20 03:16:42;;;;;;;176.15;67.43;;;;;12.80;101136.00;;;;5110088;28;20024;-78
2021/06/20 03:19:10;;;;;;;160.20;65.20;;;;;12.80;101140.00;;;;5090145;28;20027;-76
2021/06/20 03:21:37;;;;;;;187.07;68.88;;;;;12.80;101142.00;;;;5108187;28;20088;-77
2021/06/20 03:24:04;;;;;;;179.52;67.90;;;;;12.80;101143.00;;;;5107622;28;20107;-77
2021/06/20 03:26:31;;;;;;;187.52;69.20;;;;;12.80;101135.00;;;;5107109;28;20088;-77
2021/06/20 03:28:58;;;;;;;169.15;68.35;;;;;12.80;101120.00;;;;5107994;28;20067;-77
2021/06/20 03:31:26;;;;;;;212.63;67.75;;;;;12.80;101124.00;;;;5107465;28;20051;-78
2021/06/20 03:33:53;;;;;;;189.63;65.53;;;;;12.80;101135.00;;;;5107471;28;20028;-78
2021/06/20 03:36:19;;;;;;;190.52;64.90;;;;;12.80;101128.00;;;;5107824;28;20967;-78
2021/06/20 03:38:46;;;;;;;193.45;65.53;;;;;12.80;101133.00;;;;5107077;28;20081;-78
2021/06/20 03:41:13;;;;;;;175.60;64.55;;;;;12.80;101123.00;;;;5107580;28;20076;-78
2021/06/20 03:43:41;;;;;;;170.93;65.90;;;;;12.80;101136.00;;;;5108121;28;20038;-78
2021/06/20 03:46:09;;;;;;;193.85;64.45;;;;;12.80;101127.00;;;;5107677;28;20027;-77
2021/06/20 03:48:37;;;;;;;189.60;63.65;;;;;12.80;101131.00;;;;5107402;28;20114;-77
2021/06/20 03:51:04;;;;;;;185.48;59.90;;;;;12.80;101128.00;;;;5107126;28;20096;-78
2021/06/20 03:53:31;;;;;;;161.80;57.03;;;;;12.70;101137.00;;;;5085707;28;20079;-78
2021/06/20 03:55:57;;;;;;;180.57;60.42;;;;;12.70;101119.00;;;;5086821;28;20090;-77
2021/06/20 03:58:25;;;;;;;174.20;60.08;;;;;12.70;101135.00;;;;5087290;28;20063;-78
2021/06/20 04:00:52;;;;;;;176.93;58.80;;;;;12.70;101136.00;;;;5086685;28;20495;-77
2021/06/20 04:03:19;;;;;;;170.25;58.67;;;;;12.70;101114.00;;;;5086587;28;20027;-77
2021/06/20 04:05:45;;;;;;;205.00;61.15;;;;;12.70;101127.00;;;;5086650;28;20111;-78
2021/06/20 04:08:12;;;;;;;178.75;59.28;;;;;12.70;101126.00;;;;5087494;28;20136;-77
2021/06/20 04:10:38;;;;;;;161.43;56.50;;;;;12.70;101117.00;;;;5086743;28;20425;-78
2021/06/20 04:13:05;;;;;;;180.18;60.85;;;;;12.70;101134.00;;;;5086989;28;20028;-78
2021/06/20 04:15:31;;;;;;;159.43;57.63;;;;;12.70;101113.00;;;;5087032;28;20031;-78
2021/06/20 04:17:58;;;;;;;190.88;61.80;;;;;12.70;101122.00;;;;5086869;28;20028;-77
2021/06/20 04:20:25;;;;;;;172.63;59.83;;;;;12.70;101131.00;;;;5087023;28;20039;-78
2021/06/20 04:22:51;;;;;;;170.90;59.05;;;;;12.70;101121.00;;;;5087140;28;20024;-78
2021/06/20 04:25:18;;;;;;;168.65;57.85;;;;;12.70;101105.00;;;;5086932;28;20032;-77
2021/06/20 04:27:46;;;;;;;163.32;56.08;;;;;12.70;101134.00;;;;5086768;28;20106;-77
2021/06/20 04:30:15;;;;;;;157.60;56.83;;;;;12.70;101135.00;;;;5087422;28;20360;-77
2021/06/20 04:32:43;;;;;;;161.55;57.55;;;;;12.70;101133.00;;;;5086727;28;20024;-77
2021/06/20 04:35:11;;;;;;;164.40;60.33;;;;;12.70;101129.00;;;;5086593;28;20536;-78
2021/06/20 04:37:39;;;;;;;156.98;60.22;;;;;12.70;101131.00;;;;5087180;28;20039;-79
2021/06/20 04:40:07;;;;;;;170.55;59.17;;;;;12.70;101145.00;;;;5090469;28;20032;-78
2021/06/20 04:42:38;;;;;;;167.38;59.00;;;;;12.70;101115.00;;;;5090402;28;20028;-76
2021/06/20 04:45:06;;;;;;;154.25;56.95;;;;;12.70;101118.00;;;;5090124;28;20114;-79
2021/06/20 04:47:33;;;;;;;184.40;57.30;;;;;12.70;101126.00;;;;5090043;28;20059;-79
2021/06/20 04:50:00;;;;;;;184.23;57.83;;;;;12.70;101109.00;;;;5090489;28;20042;-77
2021/06/20 04:52:27;;;;;;;147.57;55.72;;;;;12.60;101123.00;;;;5090603;28;20047;-78
2021/06/20 04:54:54;;;;;;;164.43;57.22;;;;;12.70;101133.00;;;;5106113;28;20050;-79
2021/06/20 04:57:23;;;;;;;157.82;56.55;;;;;12.70;101118.00;;;;5110793;28;20047;-80
2021/06/20 04:59:56;;;;;;;200.85;57.72;;;;;12.70;101121.00;;;;5110222;28;20119;-79
2021/06/20 05:02:23;;;;;;;165.30;56.90;;;;;12.60;101122.00;;;;5111003;28;20038;-77
2021/06/20 05:04:51;;;;;;;157.57;59.30;;;;;12.70;101112.00;;;;5110240;28;20034;-77
2021/06/20 05:07:18;;;;;;;177.05;57.40;;;;;12.70;101110.00;;;;5110302;28;20031;-77
2021/06/20 05:09:44;;;;;;;172.20;57.30;;;;;12.70;101105.00;;;;5110304;28;20033;-77
2021/06/20 05:12:11;;;;;;;179.63;59.42;;;;;12.70;101126.00;;;;5110391;28;20024;-79
2021/06/20 05:14:44;;;;;;;181.00;60.30;;;;;12.70;101118.00;;;;5109762;28;20063;-79
2021/06/20 05:17:12;;;;;;;230.23;59.10;;;;;12.70;101118.00;;;;5111105;28;20034;-78
2021/06/20 05:19:39;;;;;;;203.50;60.33;;;;;12.70;101105.00;;;;5110873;28;20036;-79
2021/06/20 05:22:09;;;;;;;186.13;61.10;;;;;12.70;101099.00;;;;5110026;28;20028;-78
2021/06/20 05:24:36;;;;;;;190.70;61.28;;;;;12.70;101131.00;;;;5110007;28;20798;-79
2021/06/20 05:27:03;;;;;;;193.13;59.22;;;;;12.70;101118.00;;;;5109763;28;20027;-80
2021/06/20 05:29:30;;;;;;;210.45;56.42;;;;;12.70;101113.00;;;;5110111;28;20020;-77
2021/06/20 05:31:56;;;;;;;228.68;57.38;;;;;12.70;101115.00;;;;5110041;28;20027;-78
2021/06/20 05:34:23;;;;;;;218.85;61.95;;;;;12.70;101117.00;;;;5091864;28;20173;-79
2021/06/20 05:36:50;;;;;;;284.35;61.63;;;;;12.70;101108.00;;;;5110046;28;20019;-77
2021/06/20 05:39:16;;;;;;;277.38;60.33;;;;;12.70;101104.00;;;;5109602;28;20505;-78
2021/06/20 05:41:43;;;;;;;231.88;56.10;;;;;12.70;101109.00;;;;5109601;28;20024;-79
2021/06/20 05:44:09;;;;;;;222.57;56.28;;;;;12.70;101123.00;;;;5110523;28;20387;-79
2021/06/20 05:46:36;;;;;;;313.80;60.45;;;;;12.70;101109.00;;;;5110120;28;20042;-78
2021/06/20 05:49:02;;;;;;;282.92;59.22;;;;;12.70;101132.00;;;;5109363;28;20096;-79
2021/06/20 05:51:29;;;;;;;266.80;60.63;;;;;12.70;101103.00;;;;5109403;28;20414;-79
2021/06/20 05:53:55;;;;;;;389.92;62.60;;;;;12.70;101107.00;;;;5109927;28;20055;-78
2021/06/20 05:56:22;;;;;;;488.85;65.07;;;;;12.70;101096.00;;;;5109566;28;20038;-78
2021/06/20 05:58:49;;;;;;;513.70;69.53;;;;;12.70;101124.00;;;;5109543;28;20023;-79
2021/06/20 06:01:15;;;;;;;607.10;70.70;;;;;12.70;101081.00;;;;5109891;28;20138;-79
2021/06/20 06:03:42;;;;;;;486.10;68.28;;;;;12.60;101116.00;;;;5109077;28;20024;-78
2021/06/20 06:06:08;;;;;;;585.05;73.65;;;;;12.70;101111.00;;;;5109504;28;20063;-78
2021/06/20 06:08:35;;;;;;;558.05;72.15;;;;;12.70;101099.00;;;;5110162;28;20038;-78
2021/06/20 06:11:01;;;;;;;516.33;69.25;;;;;12.70;101114.00;;;;5091061;28;20418;-78
2021/06/20 06:13:28;;;;;;;601.63;72.57;;;;;12.70;101107.00;;;;5108900;28;20034;-78
2021/06/20 06:15:54;;;;;;;623.05;73.70;;;;;12.70;101117.00;;;;5109068;28;20115;-79
2021/06/20 06:18:21;;;;;;;705.50;75.45;;;;;12.70;101108.00;;;;5109349;28;20027;-78
2021/06/20 06:20:47;;;;;;;615.13;70.82;;;;;12.70;101129.00;;;;5108654;28;20047;-79
2021/06/20 06:23:14;;;;;;;539.60;68.85;;;;;12.70;101116.00;;;;5108718;28;20027;-79
2021/06/20 06:25:40;;;;;;;645.80;72.13;;;;;12.70;101115.00;;;;5109131;28;20186;-78
2021/06/20 06:28:07;;;;;;;679.33;76.53;;;;;12.70;101109.00;;;;5109231;28;20059;-79
2021/06/20 06:30:34;;;;;;;602.15;71.63;;;;;12.70;101107.00;;;;5108791;28;20031;-79
2021/06/20 06:33:00;;;;;;;695.38;76.63;;;;;12.70;101113.00;;;;5109678;28;20027;-78
2021/06/20 06:35:27;;;;;;;709.72;73.70;;;;;12.70;101110.00;;;;5108910;28;20020;-79
2021/06/20 06:37:53;;;;;;;622.47;70.28;;;;;12.70;101113.00;;;;5108145;28;20019;-78
2021/06/20 06:40:20;;;;;;;672.85;71.38;;;;;12.70;101123.00;;;;5108558;28;20028;-79
2021/06/20 06:42:46;;;;;;;702.97;72.68;;;;;12.70;101105.00;;;;5109027;28;20573;-78
2021/06/20 06:45:16;;;;;;;586.92;68.95;;;;;12.70;101128.00;;;;5108633;28;20160;-78
2021/06/20 06:47:43;;;;;;;650.80;73.82;;;;;12.70;101119.00;;;;5108569;28;20024;-79
2021/06/20 06:50:10;;;;;;;620.78;70.30;;;;;12.70;101103.00;;;;5108233;28;20035;-78
2021/06/20 06:52:36;;;;;;;637.20;71.00;;;;;12.70;101104.00;;;;5107912;28;20398;-78
2021/06/20 06:55:05;;;;;;;717.10;72.28;;;;;12.70;101105.00;;;;5108746;28;20525;-78
2021/06/20 06:57:33;;;;;;;605.50;68.30;;;;;12.70;101119.00;;;;5108456;28;20506;-79
2021/06/20 07:00:00;;;;;;;653.08;70.55;;;;;12.70;101100.00;;;;5108057;28;20028;-79
2021/06/20 07:02:26;;;;;;;722.08;73.78;;;;;12.70;101101.00;;;;5107194;28;20147;-79
2021/06/20 07:04:53;;;;;;;794.33;76.55;;;;;12.70;101114.00;;;;5107873;28;20736;-79
2021/06/20 07:07:19;;;;;;;801.22;80.18;;;;;12.70;101090.00;;;;5107966;28;20475;-79
2021/06/20 07:09:46;;;;;;;638.90;73.65;;;;;12.70;101092.00;;;;5107797;28;20506;-80
2021/06/20 07:12:13;;;;;;;776.00;79.25;;;;;12.70;101105.00;;;;5106858;28;20043;-80
2021/06/20 07:14:39;;;;;;;783.00;78.00;;;;;12.70;101089.00;;;;5106806;28;20027;-80
2021/06/20 07:17:09;;;;;;;641.97;69.10;;;;;12.70;101096.00;;;;5106513;28;20394;-80
2021/06/20 07:19:36;;;;;;;700.85;72.30;;;;;12.70;101085.00;;;;5106236;28;20111;-79
2021/06/20 07:22:05;;;;;;;608.47;67.10;;;;;12.70;101100.00;;;;5106190;28;20081;-80
2021/06/20 07:24:31;;;;;;;523.65;64.90;;;;;12.70;101072.00;;;;5106446;28;20735;-80
2021/06/20 07:26:58;;;;;;;501.90;62.47;;;;;12.70;101088.00;;;;5106012;28;20034;-80
2021/06/20 07:29:25;;;;;;;344.40;53.60;;;;;12.70;101088.00;;;;5105831;28;20507;-79
2021/06/20 07:31:51;;;;;;;340.35;54.53;;;;;12.70;101082.00;;;;5107068;28;20020;-79
2021/06/20 07:34:18;;;;;;;374.42;56.88;;;;;12.70;101080.00;;;;5088360;28;20154;-79
2021/06/20 07:36:45;;;;;;;451.20;59.00;;;;;12.70;101082.00;;;;5106393;28;20031;-79
2021/06/20 07:39:11;;;;;;;304.58;51.05;;;;;12.70;101089.00;;;;5107049;28;20524;-79
2021/06/20 07:41:38;;;;;;;336.88;53.10;;;;;12.70;101092.00;;;;5088131;28;20115;-80
2021/06/20 07:44:04;;;;;;;291.73;50.67;;;;;12.70;101095.00;;;;5106074;28;20016;-80
2021/06/20 07:46:31;;;;;;;412.40;54.40;;;;;12.80;101092.00;;;;5105268;28;20118;-79
2021/06/20 07:48:58;;;;;;;405.63;54.13;;;;;12.70;101076.00;;;;5105267;28;20032;-80
2021/06/20 07:51:24;;;;;;;401.08;52.70;;;;;12.70;101094.00;;;;5105894;28;20027;-79
2021/06/20 07:53:51;;;;;;;331.67;51.50;;;;;12.70;101073.00;;;;5105804;28;20115;-79
2021/06/20 07:56:17;;;;;;;313.00;49.05;;;;;12.70;101076.00;;;;5087442;28;20042;-79
2021/06/20 07:58:44;;;;;;;328.63;48.65;;;;;12.70;101078.00;;;;5105198;28;20023;-80
2021/06/20 08:01:10;;;;;;;263.25;45.85;;;;;12.70;101078.00;;;;5105196;28;20822;-79
2021/06/20 08:03:37;;;;;;;327.20;47.53;;;;;12.70;101090.00;;;;5105445;28;20024;-79
2021/06/20 08:06:04;;;;;;;287.42;47.33;;;;;12.80;101083.00;;;;5106381;28;20032;-79
2021/06/20 08:08:31;;;;;;;365.40;49.35;;;;;12.80;101105.00;;;;5105778;28;20047;-79
2021/06/20 08:10:58;;;;;;;224.55;41.08;;;;;12.70;101094.00;;;;5106331;28;20135;-79
2021/06/20 08:13:25;;;;;;;343.08;45.40;;;;;12.70;101093.00;;;;5108280;28;20143;-80
2021/06/20 08:15:51;;;;;;;347.65;44.78;;;;;12.70;101099.00;;;;5109733;28;20550;-79
2021/06/20 08:18:18;;;;;;;395.40;47.10;;;;;12.80;101103.00;;;;5109487;28;20479;-79
2021/06/20 08:20:45;;;;;;;364.35;47.10;;;;;12.70;101081.00;;;;5108957;28;20032;-78
2021/06/20 08:23:11;;;;;;;380.05;47.33;;;;;12.80;101091.00;;;;5109595;28;20042;-78
2021/06/20 08:25:38;;;;;;;320.50;43.10;;;;;12.80;101085.00;;;;5109972;28;20115;-79
2021/06/20 08:28:05;;;;;;;303.92;42.47;;;;;12.70;101057.00;;;;5109538;28;20114;-79
2021/06/20 08:30:32;;;;;;;286.83;41.85;;;;;12.80;101087.00;;;;5109716;28;20094;-79
2021/06/20 08:33:00;;;;;;;340.20;46.05;;;;;12.70;101080.00;;;;5109568;28;20058;-79
2021/06/20 08:35:27;;;;;;;343.27;44.65;;;;;12.70;101105.00;;;;5110409;28;20477;-79
2021/06/20 08:37:53;;;;;;;334.05;42.63;;;;;12.80;101092.00;;;;5110505;28;20077;-78
2021/06/20 08:40:20;;;;;;;342.27;42.58;;;;;12.80;101087.00;;;;5110379;28;20038;-79
2021/06/20 08:42:47;;;;;;;368.58;45.08;;;;;12.70;101086.00;;;;5110836;28;20040;-79
2021/06/20 08:45:15;;;;;;;424.30;46.95;;;;;12.70;101081.00;;;;5110064;28;20635;-79
2021/06/20 08:47:42;;;;;;;385.23;46.20;;;;;12.80;101064.00;;;;5110375;28;20028;-80
2021/06/20 08:50:10;;;;;;;379.83;45.70;;;;;12.70;101094.00;;;;5110710;28;20560;-78
2021/06/20 08:52:37;;;;;;;277.88;41.33;;;;;12.70;101111.00;;;;5110299;28;20039;-79
2021/06/20 08:55:07;;;;;;;295.70;41.63;;;;;12.70;101088.00;;;;5091716;28;20608;-78
2021/06/20 08:57:38;;;;;;;389.30;44.47;;;;;12.80;101085.00;;;;5109661;28;20027;-79
2021/06/20 09:00:13;;;;;;;391.48;44.28;;;;;12.80;101100.00;;;;5109823;28;20027;-79
2021/06/20 09:02:40;;;;;;;393.17;44.47;;;;;12.80;101094.00;;;;5109506;28;20082;-79
2021/06/20 09:05:14;;;;;;;360.65;43.55;;;;;12.80;101091.00;;;;5109897;28;20039;-79
2021/06/20 09:07:42;;;;;;;332.30;42.20;;;;;12.80;101085.00;;;;5109310;28;20031;-79
2021/06/20 09:10:17;;;;;;;336.33;43.15;;;;;12.80;101106.00;;;;5109825;28;20163;-79
2021/06/20 09:12:59;;;;;;;411.15;44.40;;;;;12.80;101125.00;;;;5110516;28;20039;-78
2021/06/20 09:15:28;;;;;;;510.80;50.40;;;;;12.80;101111.00;;;;5110287;28;20478;-78
2021/06/20 09:18:04;;;;;;;599.22;52.83;;;;;12.80;101114.00;;;;5110204;28;20114;-78
2021/06/20 09:20:43;;;;;;;504.58;47.92;;;;;12.80;101093.00;;;;5108979;28;20495;-79
2021/06/20 09:23:15;;;;;;;536.75;52.58;;;;;12.80;101109.00;;;;5109168;28;20032;-78
2021/06/20 09:25:52;;;;;;;539.78;48.67;;;;;12.70;101124.00;;;;5108125;28;20024;-79
2021/06/20 09:28:19;;;;;;;545.40;50.10;;;;;12.80;101113.00;;;;5109101;28;20050;-78
2021/06/20 09:30:48;;;;;;;548.45;50.83;;;;;12.80;101123.00;;;;5109378;28;20114;-79
2021/06/20 09:33:16;;;;;;;434.45;45.58;;;;;12.80;101138.00;;;;5109302;28;20028;-78
2021/06/20 09:35:56;;;;;;;514.17;50.88;;;;;12.80;101132.00;;;;5108863;28;20042;-79
2021/06/20 09:38:31;;;;;;;510.75;47.63;;;;;12.80;101094.00;;;;5109399;28;20454;-79
2021/06/20 09:41:04;;;;;;;567.95;51.65;;;;;12.80;101152.00;;;;5108271;28;20036;-78
2021/06/20 09:43:31;;;;;;;471.90;47.42;;;;;12.80;101153.00;;;;5107980;28;20031;-79
2021/06/20 09:45:58;;;;;;;388.60;41.97;;;;;12.80;101133.00;;;;5107823;28;20035;-79
2021/06/20 09:48:33;;;;;;;383.10;41.05;;;;;12.80;101133.00;;;;5107513;28;20028;-79
2021/06/20 09:51:22;;;;;;;399.20;40.33;;;;;12.80;101151.00;;;;5108144;28;20035;-79
2021/06/20 09:53:50;;;;;;;480.73;45.47;;;;;12.80;101133.00;;;;5107382;28;20055;-79
2021/06/20 09:56:29;;;;;;;407.77;45.80;;;;;12.80;101144.00;;;;5108511;28;20029;-79
2021/06/20 09:59:07;;;;;;;401.10;43.75;;;;;12.90;101139.00;;;;5108884;28;20066;-78
2021/06/20 10:01:35;;;;;;;459.23;45.88;;;;;12.80;101154.00;;;;5108397;28;20024;-79
2021/06/20 10:04:03;;;;;;;545.63;48.33;;;;;12.80;101140.00;;;;5107447;28;20115;-79
2021/06/20 10:06:29;;;;;;;465.10;45.42;;;;;12.90;101141.00;;;;5107634;28;20078;-79
2021/06/20 10:08:56;;;;;;;454.33;44.33;;;;;12.90;101148.00;;;;5107372;28;20023;-78
2021/06/20 10:11:23;;;;;;;413.80;44.03;;;;;12.90;101164.00;;;;5107346;28;20781;-79
2021/06/20 10:13:50;;;;;;;506.33;45.15;;;;;12.90;101159.00;;;;5107101;28;20088;-79
2021/06/20 10:16:24;;;;;;;551.22;48.53;;;;;12.90;101163.00;;;;5107485;28;20024;-79
2021/06/20 10:18:54;;;;;;;536.95;51.60;;;;;12.90;101150.00;;;;5107220;28;20028;-79
2021/06/20 10:21:36;;;;;;;542.58;46.80;;;;;12.90;101166.00;;;;5107620;28;20022;-79
2021/06/20 10:24:08;;;;;;;506.95;44.83;;;;;12.90;101160.00;;;;5107333;28;20036;-80
2021/06/20 10:26:40;;;;;;;534.65;47.03;;;;;12.90;101163.00;;;;5106927;28;20035;-79
2021/06/20 10:29:19;;;;;;;479.27;48.40;;;;;12.90;101169.00;;;;5107137;28;20502;-79
2021/06/20 10:31:46;;;;;;;489.00;44.67;;;;;12.90;101180.00;;;;5107444;28;20123;-79
2021/06/20 10:34:27;;;;;;;465.70;44.85;;;;;12.80;101163.00;;;;5107373;28;20106;-79
2021/06/20 10:37:02;;;;;;;468.00;43.90;;;;;12.90;101178.00;;;;5106496;28;20063;-79
2021/06/20 10:39:29;;;;;;;397.08;42.78;;;;;12.90;101175.00;;;;5106558;28;20054;-79
2021/06/20 10:42:06;;;;;;;468.35;43.85;;;;;12.90;101193.00;;;;5087776;28;20020;-81
2021/06/20 10:44:43;;;;;;;462.30;46.50;;;;;12.90;101206.00;;;;5106300;28;20031;-79
2021/06/20 10:47:10;;;;;;;387.20;42.22;;;;;12.90;101186.00;;;;5107196;28;20119;-79
2021/06/20 10:49:38;;;;;;;492.65;48.88;;;;;12.90;101203.00;;;;5106696;28;20054;-79
2021/06/20 10:52:15;;;;;;;430.00;55.08;;;;;12.90;101192.00;;;;5106198;28;20110;-79
2021/06/20 10:54:42;;;;;;;440.63;45.67;;;;;13.00;101201.00;;;;5106033;28;20507;-79
2021/06/20 10:57:12;;;;;;;560.40;49.85;;;;;13.00;101207.00;;;;5106746;28;20091;-79
2021/06/20 10:59:38;;;;;;;559.95;49.38;;;;;13.00;101207.00;;;;5106085;28;20039;-79
2021/06/20 11:02:07;;;;;;;494.70;45.15;;;;;12.90;101212.00;;;;5088310;28;20036;-80
2021/06/20 11:04:41;;;;;;;472.95;45.92;;;;;13.00;101203.00;;;;5106068;28;20034;-79
2021/06/20 11:07:07;;;;;;;418.20;44.35;;;;;13.00;101210.00;;;;5105907;28;20498;-80
2021/06/20 11:09:37;;;;;;;394.50;43.33;;;;;13.00;101212.00;;;;5106709;28;20024;-80
2021/06/20 11:12:14;;;;;;;398.48;43.53;;;;;13.00;101203.00;;;;5106530;28;20454;-80
2021/06/20 11:14:46;;;;;;;403.52;43.58;;;;;13.00;101202.00;;;;5106736;28;20036;-79
2021/06/20 11:17:13;;;;;;;243.55;36.38;;;;;13.00;101206.00;;;;5106506;28;20077;-80
2021/06/20 11:19:39;;;;;;;309.77;39.30;;;;;13.00;101215.00;;;;5106702;28;20063;-80
2021/06/20 11:22:12;;;;;;;354.17;39.65;;;;;13.00;101218.00;;;;5106818;28;20099;-79
2021/06/20 11:24:51;;;;;;;354.85;44.40;;;;;13.10;101231.00;;;;5107510;28;20023;-79
2021/06/20 11:27:24;;;;;;;393.38;48.28;;;;;13.10;101212.00;;;;5106540;28;20045;-80
2021/06/20 11:29:54;;;;;;;355.77;45.10;;;;;13.00;101206.00;;;;5106586;28;20019;-80
2021/06/20 11:32:25;;;;;;;389.33;44.90;;;;;13.00;101204.00;;;;5107523;28;20023;-79
2021/06/20 11:35:04;;;;;;;259.20;44.75;;;;;13.10;101216.00;;;;5107146;28;20115;-80
2021/06/20 11:37:43;;;;;;;288.65;42.80;;;;;13.10;101231.00;;;;5107646;28;20023;-79
2021/06/20 11:40:15;;;;;;;261.75;40.05;;;;;13.10;101226.00;;;;5107486;28;20059;-80
2021/06/20 11:42:46;;;;;;;215.65;38.40;;;;;13.10;101235.00;;;;5108326;28;20150;-78
2021/06/20 11:45:19;;;;;;;184.27;38.13;;;;;13.10;101213.00;;;;5106886;28;20070;-79
2021/06/20 11:48:00;;;;;;;144.23;35.22;;;;;13.00;101220.00;;;;5107262;28;20759;-79